Time;durP1;ratioP1;P1;durP2;ratioP2;P2;SDS_P1;SDS_P2;PMS_P1;PMS_P2;Temp;Humidity;BMP_temperature;BMP_pressure;BME280_temperature;BME280_humidity;BME280_pressure;Samples;Min_cycle;Max_cycle;Signal;HPM_P1;HPM_P2
2023/08/15 06:50:40;;;;;;;6.40;4.70;;;;;;;25.43;68.32;100921.84;112561;1253;22392;-44
2023/08/15 06:53:08;;;;;;;9.30;4.50;;;;;;;25.53;68.05;100918.83;112599;1253;22346;-45
2023/08/15 06:55:35;;;;;;;6.70;4.30;;;;;;;25.65;68.02;100918.89;112628;1253;22400;-44
2023/08/15 06:58:03;;;;;;;7.50;4.40;;;;;;;25.75;68.04;100917.32;112597;1253;22468;-44
2023/08/15 07:00:31;;;;;;;8.90;4.30;;;;;;;25.82;67.27;100917.14;112603;1253;22408;-46
2023/08/15 07:02:58;;;;;;;9.70;4.50;;;;;;;25.91;66.13;100916.29;112591;1253;22379;-44
2023/08/15 07:05:25;;;;;;;5.50;4.50;;;;;;;26.05;65.81;100918.60;112594;1253;23313;-44
2023/08/15 07:07:52;;;;;;;8.30;4.20;;;;;;;26.18;65.08;100916.77;112572;1253;22385;-49
2023/08/15 07:10:19;;;;;;;4.70;4.10;;;;;;;26.32;64.37;100914.95;112526;1253;22837;-44
2023/08/15 07:12:46;;;;;;;9.40;4.20;;;;;;;26.46;63.71;100913.63;112598;1253;22369;-44
2023/08/15 07:15:14;;;;;;;6.60;4.20;;;;;;;26.61;63.58;100915.15;112608;1253;22816;-43
2023/08/15 07:17:41;;;;;;;7.90;3.90;;;;;;;26.74;63.60;100917.26;112621;1253;23206;-44
2023/08/15 07:20:09;;;;;;;9.00;4.40;;;;;;;26.84;63.18;100913.81;112589;1253;23202;-44
2023/08/15 07:22:36;;;;;;;6.90;4.20;;;;;;;26.92;62.29;100909.17;112582;1253;22268;-43
2023/08/15 07:25:05;;;;;;;5.60;3.70;;;;;;;27.02;61.62;100908.98;112617;1253;22421;-44
2023/08/15 07:27:32;;;;;;;8.80;4.20;;;;;;;27.14;60.45;100908.52;112631;1252;22384;-44
2023/08/15 07:29:59;;;;;;;5.60;3.30;;;;;;;27.25;59.19;100914.09;112661;1253;22460;-44
2023/08/15 07:32:27;;;;;;;4.00;3.50;;;;;;;27.35;58.16;100910.79;112523;1253;161198;-43
2023/08/15 07:34:54;;;;;;;7.30;4.00;;;;;;;27.47;57.33;100904.33;112583;1253;22381;-48
2023/08/15 07:37:21;;;;;;;4.60;3.50;;;;;;;27.56;56.86;100903.97;112617;1253;22365;-48
2023/08/15 07:39:55;;;;;;;5.80;3.50;;;;;;;27.65;55.91;100903.80;110978;1253;25455;-47
2023/08/15 07:42:22;;;;;;;6.70;3.30;;;;;;;27.74;55.37;100905.71;110831;1253;22282;-43
2023/08/15 07:44:50;;;;;;;3.80;3.20;;;;;;;27.84;54.89;100904.77;112665;1247;22495;-45
2023/08/15 07:47:17;;;;;;;16.00;3.80;;;;;;;27.93;54.78;100902.58;111819;1253;22632;-44
2023/08/15 07:49:44;;;;;;;6.40;3.50;;;;;;;28.04;53.30;100903.35;111987;1253;24896;-46
2023/08/15 07:52:11;;;;;;;6.10;3.40;;;;;;;28.14;52.21;100903.44;109949;1253;25406;-43
2023/08/15 07:54:40;;;;;;;5.90;3.40;;;;;;;28.21;51.64;100902.43;111063;1253;22982;-44
2023/08/15 07:57:07;;;;;;;6.40;3.40;;;;;;;28.26;51.26;100904.22;112629;1253;22374;-44
2023/08/15 07:59:34;;;;;;;4.70;3.30;;;;;;;28.32;51.11;100909.61;112643;1253;22380;-43
2023/08/15 08:02:01;;;;;;;5.50;3.20;;;;;;;28.39;50.73;100910.82;112645;1246;22296;-43
2023/08/15 08:04:28;;;;;;;4.10;3.00;;;;;;;28.43;50.18;100908.38;111085;1253;25183;-44
2023/08/15 08:06:55;;;;;;;3.60;3.20;;;;;;;28.47;49.08;100906.36;112409;1253;22407;-48
2023/08/15 08:09:23;;;;;;;4.00;2.70;;;;;;;28.46;49.12;100907.84;112243;1253;22496;-43
2023/08/15 08:11:52;;;;;;;4.40;2.60;;;;;;;28.48;48.73;100904.33;111059;1253;22647;-42
2023/08/15 08:14:19;;;;;;;6.30;3.00;;;;;;;28.51;48.60;100905.33;111606;1253;22383;-44
2023/08/15 08:16:46;;;;;;;4.00;3.30;;;;;;;28.57;48.56;100903.55;111478;1253;22566;-44
2023/08/15 08:19:13;;;;;;;4.20;3.30;;;;;;;28.64;48.59;100901.77;112614;1253;22295;-42
2023/08/15 08:21:40;;;;;;;7.00;2.90;;;;;;;28.73;48.63;100904.63;112654;1253;22442;-42
2023/08/15 08:24:07;;;;;;;5.40;2.80;;;;;;;28.83;47.79;100904.46;111571;1253;22514;-47
2023/08/15 08:26:34;;;;;;;7.70;3.00;;;;;;;28.89;47.62;100902.48;111251;1253;22409;-42
2023/08/15 08:29:01;;;;;;;5.40;3.10;;;;;;;28.93;47.25;100899.52;112647;1253;22409;-43
2023/08/15 08:31:28;;;;;;;9.00;3.20;;;;;;;28.99;46.73;100898.62;111126;1253;22499;-44
2023/08/15 08:33:56;;;;;;;4.90;2.80;;;;;;;29.02;46.30;100899.10;112199;1253;23278;-42
2023/08/15 08:36:23;;;;;;;11.10;3.10;;;;;;;29.06;46.44;100898.29;112631;1253;22874;-43
2023/08/15 08:38:50;;;;;;;3.10;2.70;;;;;;;29.13;45.93;100898.36;112590;1253;23138;-43
2023/08/15 08:41:17;;;;;;;4.00;2.60;;;;;;;29.23;45.33;100893.59;111486;1253;22485;-46
2023/08/15 08:43:44;;;;;;;3.20;2.80;;;;;;;29.31;45.02;100892.80;110638;1253;22572;-42
2023/08/15 08:46:11;;;;;;;5.20;2.70;;;;;;;29.39;45.16;100892.77;109888;1252;22986;-43
2023/08/15 08:48:38;;;;;;;5.10;2.70;;;;;;;29.39;44.45;100891.49;110266;1253;22570;-43
2023/08/15 08:51:05;;;;;;;2.70;2.40;;;;;;;29.39;44.21;100893.71;111641;1253;22635;-42
2023/08/15 08:53:32;;;;;;;4.00;3.40;;;;;;;29.45;44.11;100889.14;110888;1253;24699;-43
2023/08/15 08:56:00;;;;;;;4.10;2.90;;;;;;;29.55;43.99;100890.61;110699;1253;22608;-43
2023/08/15 08:58:29;;;;;;;6.00;2.80;;;;;;;29.56;44.11;100888.38;112178;1253;25429;-44
2023/08/15 09:00:58;;;;;;;9.70;2.50;;;;;;;29.52;44.11;100878.24;110772;1253;24259;-45
2023/08/15 09:03:26;;;;;;;3.30;2.70;;;;;;;29.54;44.68;100876.85;110934;1253;22498;-44
2023/08/15 09:05:53;;;;;;;5.10;3.10;;;;;;;29.59;44.31;100875.63;112220;1253;22490;-45
2023/08/15 09:08:20;;;;;;;7.80;4.00;;;;;;;29.61;44.43;100877.13;111541;1251;22474;-45
2023/08/15 09:10:47;;;;;;;4.90;2.50;;;;;;;29.63;43.93;100875.49;112794;1251;22376;-44
2023/08/15 09:13:14;;;;;;;3.60;2.70;;;;;;;29.69;43.54;100870.95;112813;1251;22356;-44
2023/08/15 09:15:41;;;;;;;9.50;2.60;;;;;;;29.78;43.49;100863.15;112281;1251;23721;-44
2023/08/15 09:18:08;;;;;;;4.00;2.80;;;;;;;29.82;43.95;100863.16;111419;1251;22501;-44
2023/08/15 09:20:44;;;;;;;4.70;2.60;;;;;;;29.89;43.97;100862.73;110425;1251;26954;-44
2023/08/15 09:23:11;;;;;;;4.10;2.70;;;;;;;29.94;43.79;100862.48;112560;1251;22500;-44
2023/08/15 09:25:39;;;;;;;4.20;3.10;;;;;;;29.95;43.77;100863.67;110700;1241;25566;-43
2023/08/15 09:28:06;;;;;;;4.40;3.00;;;;;;;29.98;43.95;100864.77;110564;1251;25384;-44
2023/08/15 09:30:33;;;;;;;5.10;3.10;;;;;;;30.02;43.63;100865.02;110907;1251;22519;-44
2023/08/15 09:33:01;;;;;;;3.80;2.70;;;;;;;30.00;43.50;100863.33;110341;1251;22514;-44
2023/08/15 09:35:28;;;;;;;3.50;2.60;;;;;;;30.02;43.34;100859.08;110410;1251;25326;-48
2023/08/15 09:37:55;;;;;;;3.80;3.10;;;;;;;30.00;43.34;100860.29;110160;1251;26766;-46
2023/08/15 09:40:23;;;;;;;4.70;2.90;;;;;;;30.02;43.18;100858.88;110783;1251;22493;-44
2023/08/15 09:42:54;;;;;;;3.20;2.90;;;;;;;30.04;43.27;100860.02;110361;1251;22513;-48
2023/08/15 09:45:21;;;;;;;4.00;2.70;;;;;;;30.04;43.31;100857.15;111701;1251;22453;-44
2023/08/15 09:47:48;;;;;;;5.00;2.70;;;;;;;30.07;43.40;100850.98;112853;1251;22245;-43
2023/08/15 09:50:15;;;;;;;4.50;3.10;;;;;;;30.13;42.92;100849.45;111613;1251;22518;-44
2023/08/15 09:52:46;;;;;;;4.80;2.60;;;;;;;30.15;42.44;100848.95;110843;1251;22559;-43
2023/08/15 09:55:18;;;;;;;5.30;3.10;;;;;;;30.16;42.19;100849.41;111123;1249;22819;-48
2023/08/15 09:57:46;;;;;;;3.50;3.10;;;;;;;30.16;42.13;100851.77;112405;1249;22490;-43
2023/08/15 10:00:42;;;;;;;12.30;2.90;;;;;;;30.14;42.52;100853.02;111410;1249;22633;-48
2023/08/15 10:03:17;;;;;;;4.10;3.00;;;;;;;30.15;42.45;100851.14;111188;1249;22519;-48
2023/08/15 10:05:46;;;;;;;9.60;3.20;;;;;;;30.18;42.52;100845.83;111322;1248;23213;-48
2023/08/15 10:08:13;;;;;;;3.70;3.20;;;;;;;30.22;42.45;100846.52;110970;1249;22616;-48
2023/08/15 10:10:40;;;;;;;5.00;3.10;;;;;;;30.24;43.29;100846.55;112046;1248;22431;-48
2023/08/15 10:13:07;;;;;;;3.80;2.60;;;;;;;30.26;43.19;100845.27;111557;1249;23081;-48
2023/08/15 10:15:34;;;;;;;8.30;3.10;;;;;;;30.25;43.03;100846.46;111292;1248;23202;-49
2023/08/15 10:18:02;;;;;;;3.30;2.80;;;;;;;30.23;43.12;100845.70;112092;1249;22430;-49
2023/08/15 10:20:34;;;;;;;5.90;3.10;;;;;;;30.26;42.75;100844.40;112056;1248;23046;-48
2023/08/15 10:23:01;;;;;;;6.50;2.50;;;;;;;30.34;42.63;100843.09;113003;1248;22817;-48
2023/08/15 10:25:36;;;;;;;2.90;2.60;;;;;;;30.43;42.04;100838.09;112988;1249;22377;-48
2023/08/15 10:28:05;;;;;;;5.60;2.70;;;;;;;30.53;41.76;100838.39;112992;1249;22339;-45
2023/08/15 10:30:46;;;;;;;5.10;2.60;;;;;;;30.69;41.73;100831.99;112856;1249;22695;-44
2023/08/15 10:33:21;;;;;;;3.00;2.70;;;;;;;30.96;41.10;100832.82;113019;1248;22576;-44
2023/08/15 10:35:49;;;;;;;4.40;2.70;;;;;;;31.25;39.83;100826.62;112830;1249;22375;-44
2023/08/15 10:38:18;;;;;;;4.00;2.60;;;;;;;31.54;39.48;100831.36;112992;1248;22379;-43
2023/08/15 10:40:45;;;;;;;4.70;2.70;;;;;;;31.82;39.05;100825.50;112336;1249;22499;-44
2023/08/15 10:43:13;;;;;;;5.90;2.70;;;;;;;32.08;38.75;100818.95;111548;1249;24315;-44
2023/08/15 10:45:41;;;;;;;5.40;2.90;;;;;;;32.33;38.21;100819.73;112818;1249;23291;-44
2023/08/15 10:48:09;;;;;;;4.50;2.70;;;;;;;32.69;37.86;100813.23;112120;1248;22513;-48
2023/08/15 10:50:45;;;;;;;7.30;2.60;;;;;;;33.11;37.11;100814.40;113036;1249;22503;-48
2023/08/15 10:53:12;;;;;;;3.80;2.70;;;;;;;33.54;36.35;100808.69;112901;1249;23147;-44
2023/08/15 10:55:39;;;;;;;6.60;2.60;;;;;;;33.83;35.79;100807.03;110409;1249;22596;-44
2023/08/15 10:58:11;;;;;;;8.60;2.40;;;;;;;34.14;35.36;100807.08;110756;1249;25579;-44
2023/08/15 11:00:39;;;;;;;7.40;2.90;;;;;;;34.57;34.23;100808.09;110667;1249;22509;-44
2023/08/15 11:03:07;;;;;;;4.00;2.60;;;;;;;34.96;33.36;100808.19;110675;1248;24289;-43
2023/08/15 11:05:35;;;;;;;8.40;2.70;;;;;;;35.25;32.75;100804.21;110604;1249;23828;-44
2023/08/15 11:08:13;;;;;;;2.70;2.40;;;;;;;35.52;31.88;100806.32;110998;1249;26601;-45
2023/08/15 11:10:44;;;;;;;6.30;2.50;;;;;;;35.81;31.40;100800.21;110952;1249;22503;-45
2023/08/15 11:13:11;;;;;;;4.30;2.40;;;;;;;36.18;30.96;100795.77;112310;1249;23157;-43
2023/08/15 11:15:38;;;;;;;5.80;2.70;;;;;;;36.40;30.20;100797.44;113029;1249;23132;-44
2023/08/15 11:18:05;;;;;;;4.70;2.00;;;;;;;36.38;29.76;100793.61;113036;1249;22407;-47
2023/08/15 11:20:32;;;;;;;4.30;2.10;;;;;;;36.13;29.93;100788.55;112541;1233;22409;-43
2023/08/15 11:22:59;;;;;;;3.50;2.20;;;;;;;35.82;29.71;100786.02;112445;1249;22746;-44
2023/08/15 11:25:26;;;;;;;3.80;2.40;;;;;;;35.48;30.20;100786.89;110605;1249;25377;-47
2023/08/15 11:27:53;;;;;;;6.30;3.00;;;;;;;35.15;30.55;100785.42;112985;1249;22965;-44
2023/08/15 11:30:20;;;;;;;7.30;2.60;;;;;;;34.76;31.30;100784.00;113047;1249;23600;-48
2023/08/15 11:32:48;;;;;;;5.70;2.50;;;;;;;34.31;32.33;100782.99;113060;1248;22356;-44
2023/08/15 11:35:15;;;;;;;6.00;2.60;;;;;;;34.01;32.80;100778.25;113009;1234;23096;-48
2023/08/15 11:37:43;;;;;;;4.30;2.20;;;;;;;33.83;33.11;100778.98;112750;1249;22360;-43
2023/08/15 11:40:10;;;;;;;3.00;2.60;;;;;;;33.68;33.03;100781.73;112286;1249;22412;-44
2023/08/15 11:42:37;;;;;;;3.90;2.40;;;;;;;33.46;33.39;100774.90;113022;1249;23235;-44
2023/08/15 11:45:18;;;;;;;4.90;3.00;;;;;;;33.23;33.73;100774.34;112856;1249;22489;-43
2023/08/15 11:47:51;;;;;;;4.10;2.40;;;;;;;33.08;34.22;100772.61;112927;1249;22833;-43
2023/08/15 11:50:19;;;;;;;5.60;3.20;;;;;;;32.92;34.55;100770.91;112942;1249;22820;-48
2023/08/15 11:52:53;;;;;;;4.40;2.80;;;;;;;32.85;34.97;100770.61;112894;1249;22426;-43
2023/08/15 11:55:21;;;;;;;6.30;3.20;;;;;;;32.74;34.93;100759.10;112978;1249;22886;-44
2023/08/15 11:57:50;;;;;;;3.20;2.80;;;;;;;32.68;35.23;100759.23;112961;1249;22232;-43
2023/08/15 12:00:18;;;;;;;6.40;2.40;;;;;;;32.57;35.32;100757.33;112804;1249;22479;-43
2023/08/15 12:02:46;;;;;;;6.80;2.20;;;;;;;32.44;35.68;100756.78;112954;1249;22344;-43
2023/08/15 12:05:15;;;;;;;4.10;2.70;;;;;;;32.30;36.24;100757.33;112993;1249;22376;-43
2023/08/15 12:07:42;;;;;;;5.40;2.80;;;;;;;32.21;36.53;100755.19;113003;1249;23029;-43
2023/08/15 12:10:10;;;;;;;7.70;2.70;;;;;;;32.19;36.65;100754.86;112985;1249;22258;-42
2023/08/15 12:12:45;;;;;;;6.10;2.70;;;;;;;32.16;36.67;100750.02;113001;1249;22344;-43
2023/08/15 12:15:13;;;;;;;4.10;2.50;;;;;;;32.14;36.55;100747.49;111235;1249;26557;-44
2023/08/15 12:17:40;;;;;;;6.60;2.70;;;;;;;32.18;36.75;100743.54;111173;1249;22482;-42
2023/08/15 12:20:11;;;;;;;10.10;2.90;;;;;;;32.19;36.61;100744.09;110337;1249;26353;-45
2023/08/15 12:22:41;;;;;;;7.50;2.60;;;;;;;32.16;36.48;100740.86;110580;1248;25598;-43
2023/08/15 12:25:08;;;;;;;7.20;2.70;;;;;;;32.20;36.77;100740.02;111238;1248;22408;-44
2023/08/15 12:27:36;;;;;;;3.00;2.70;;;;;;;32.25;37.13;100742.10;111788;1248;22561;-44
2023/08/15 12:30:04;;;;;;;3.80;2.90;;;;;;;32.24;36.91;100739.79;110114;1249;24214;-43
2023/08/15 12:32:42;;;;;;;3.90;2.40;;;;;;;32.11;36.92;100738.20;110269;1248;22543;-47
2023/08/15 12:35:09;;;;;;;2.50;2.30;;;;;;;32.01;36.96;100739.20;112291;1248;22438;-48
2023/08/15 12:37:37;;;;;;;3.80;2.70;;;;;;;31.95;37.30;100736.13;110722;1248;22585;-44
2023/08/15 12:40:04;;;;;;;7.30;2.70;;;;;;;31.84;37.68;100734.85;111627;1248;23230;-49
2023/08/15 12:42:41;;;;;;;3.10;2.40;;;;;;;31.80;38.24;100733.01;113051;1248;22879;-49
2023/08/15 12:45:08;;;;;;;3.00;2.50;;;;;;;31.88;38.23;100735.67;113040;1249;22376;-54
2023/08/15 12:47:35;;;;;;;3.80;2.50;;;;;;;31.99;38.05;100734.33;112523;1248;25291;-48
2023/08/15 12:50:04;;;;;;;7.30;2.70;;;;;;;32.12;38.26;100732.15;111818;1249;22552;-51
2023/08/15 12:52:32;;;;;;;2.80;2.40;;;;;;;32.20;38.09;100728.77;110770;1248;22591;-54
2023/08/15 12:55:00;;;;;;;3.90;2.60;;;;;;;32.29;38.02;100724.80;110252;1249;22520;-48
2023/08/15 12:57:28;;;;;;;3.20;2.20;;;;;;;32.37;37.72;100726.32;110110;1249;25379;-55
2023/08/15 12:59:55;;;;;;;3.70;2.90;;;;;;;32.41;37.46;100722.73;111737;1249;22435;-49
2023/08/15 13:02:22;;;;;;;5.80;2.40;;;;;;;32.46;37.72;100727.69;112282;1249;22541;-55
2023/08/15 13:04:50;;;;;;;4.90;2.90;;;;;;;32.54;37.60;100729.74;111165;1248;22515;-47
2023/08/15 13:07:17;;;;;;;2.70;2.30;;;;;;;32.64;37.42;100728.16;112144;1249;22506;-49
2023/08/15 13:09:44;;;;;;;4.90;2.30;;;;;;;32.80;37.03;100726.23;112116;1249;23151;-49
2023/08/15 13:12:12;;;;;;;2.60;2.40;;;;;;;32.89;36.84;100726.77;113072;1249;23150;-55
2023/08/15 13:14:38;;;;;;;5.10;2.40;;;;;;;32.91;35.94;100727.48;112057;1249;22520;-54
2023/08/15 13:17:05;;;;;;;2.20;1.90;;;;;;;32.99;35.67;100727.13;111369;1249;22533;-56
2023/08/15 13:19:33;;;;;;;5.10;2.10;;;;;;;33.11;35.76;100729.54;111068;1249;22518;-54
2023/08/15 13:22:00;;;;;;;2.30;2.10;;;;;;;33.21;35.53;100730.98;110033;1249;22505;-49
2023/08/15 13:24:27;;;;;;;6.20;2.60;;;;;;;33.38;35.16;100725.34;110622;1249;22737;-48
2023/08/15 13:26:55;;;;;;;7.20;2.40;;;;;;;33.50;34.77;100728.94;110296;1249;22751;-49
2023/08/15 13:29:22;;;;;;;3.40;2.30;;;;;;;33.61;34.53;100724.18;110123;1249;24181;-50
2023/08/15 13:31:49;;;;;;;2.40;2.20;;;;;;;33.67;34.34;100720.39;110043;1249;22520;-49
2023/08/15 13:34:17;;;;;;;3.70;2.00;;;;;;;33.61;34.21;100720.74;110974;1249;22645;-47
2023/08/15 13:36:45;;;;;;;4.60;2.00;;;;;;;33.55;34.53;100719.62;110199;1249;22592;-55
2023/08/15 13:39:14;;;;;;;4.90;2.20;;;;;;;33.52;35.17;100719.42;110654;1249;22511;-48
2023/08/15 13:41:41;;;;;;;6.80;2.50;;;;;;;33.47;35.38;100717.48;110509;1249;25325;-48
2023/08/15 13:44:09;;;;;;;3.50;2.30;;;;;;;33.48;35.46;100716.17;110723;1249;22465;-48
2023/08/15 13:46:36;;;;;;;3.30;2.30;;;;;;;33.51;35.36;100717.52;110069;1249;24556;-55
2023/08/15 13:49:04;;;;;;;6.20;1.90;;;;;;;33.57;35.11;100712.81;110352;1249;22868;-49
2023/08/15 13:51:31;;;;;;;4.90;2.40;;;;;;;33.60;34.81;100711.81;110068;1249;24183;-55
2023/08/15 13:54:00;;;;;;;3.90;2.10;;;;;;;33.68;35.17;100709.58;109965;1249;25900;-48
2023/08/15 13:56:28;;;;;;;2.00;1.90;;;;;;;33.89;34.70;100707.72;110351;1249;22622;-49
2023/08/15 13:58:55;;;;;;;4.30;2.50;;;;;;;34.10;34.44;100710.16;109985;1249;25203;-55
2023/08/15 14:01:22;;;;;;;5.40;2.60;;;;;;;34.24;34.57;100703.94;110269;1249;24179;-55
2023/08/15 14:03:50;;;;;;;2.70;2.40;;;;;;;34.27;35.44;100703.09;110046;1249;25461;-48
2023/08/15 14:06:17;;;;;;;3.30;2.10;;;;;;;34.21;35.73;100702.57;110345;1249;25414;-55
2023/08/15 14:08:44;;;;;;;7.80;3.00;;;;;;;34.24;36.74;100701.80;110308;1249;24262;-54
2023/08/15 14:11:11;;;;;;;2.70;2.40;;;;;;;34.35;36.90;100698.21;111322;1249;22415;-49
2023/08/15 14:13:38;;;;;;;2.40;2.20;;;;;;;34.57;36.91;100699.92;112938;1249;22507;-48
2023/08/15 14:16:05;;;;;;;8.10;2.90;;;;;;;34.69;36.67;100697.06;113073;1248;23101;-49
2023/08/15 14:18:32;;;;;;;6.40;2.40;;;;;;;34.69;36.05;100696.30;113078;1249;22669;-48
2023/08/15 14:20:59;;;;;;;5.10;2.30;;;;;;;34.63;35.87;100695.25;113062;1249;22438;-55
2023/08/15 14:23:26;;;;;;;4.70;2.50;;;;;;;34.42;35.80;100694.45;113079;1248;22369;-54
2023/08/15 14:25:53;;;;;;;5.90;2.40;;;;;;;34.17;35.69;100692.88;113049;1249;22406;-55
2023/08/15 14:28:20;;;;;;;5.90;2.00;;;;;;;33.99;35.46;100689.98;112425;1249;23158;-55
2023/08/15 14:30:47;;;;;;;3.60;2.30;;;;;;;33.86;35.82;100688.59;110542;1248;22507;-55
2023/08/15 14:33:15;;;;;;;3.30;2.60;;;;;;;33.79;35.99;100692.90;112192;1249;23122;-48
2023/08/15 14:35:42;;;;;;;4.10;2.70;;;;;;;33.70;36.25;100690.96;110259;1249;22637;-55
2023/08/15 14:38:09;;;;;;;5.60;2.70;;;;;;;33.67;36.30;100690.02;110481;1249;22547;-54
2023/08/15 14:40:37;;;;;;;4.30;2.30;;;;;;;33.58;36.81;100687.94;111346;1249;23013;-48
2023/08/15 14:43:04;;;;;;;5.40;2.20;;;;;;;33.50;36.96;100687.95;113041;1249;22990;-55
2023/08/15 14:45:31;;;;;;;2.40;2.20;;;;;;;33.42;37.16;100687.02;111473;1248;24334;-47
2023/08/15 14:47:58;;;;;;;3.20;2.70;;;;;;;33.35;37.59;100684.70;110244;1249;26566;-48
2023/08/15 14:50:25;;;;;;;9.20;2.30;;;;;;;33.26;38.00;100681.23;110638;1249;24193;-49
2023/08/15 14:52:52;;;;;;;5.60;2.60;;;;;;;33.12;38.38;100685.54;110585;1249;23196;-55
2023/08/15 14:55:19;;;;;;;7.90;2.70;;;;;;;33.03;38.67;100686.83;110751;1249;25314;-55
2023/08/15 14:57:46;;;;;;;5.70;3.00;;;;;;;32.95;39.30;100687.41;110588;1249;22505;-55
2023/08/15 15:00:14;;;;;;;3.80;2.80;;;;;;;32.88;39.28;100685.30;110126;1249;25398;-54
2023/08/15 15:02:42;;;;;;;4.10;2.80;;;;;;;32.74;39.77;100682.17;110085;1249;22587;-48
2023/08/15 15:05:09;;;;;;;3.50;2.60;;;;;;;32.57;40.08;100685.08;110157;1249;22502;-56
2023/08/15 15:07:36;;;;;;;4.20;2.50;;;;;;;32.48;40.75;100685.61;110103;1249;24332;-56
2023/08/15 15:10:04;;;;;;;13.10;4.10;;;;;;;32.46;40.97;100685.05;109944;1249;22508;-48
2023/08/15 15:12:32;;;;;;;3.40;2.40;;;;;;;32.42;41.09;100685.30;110995;1249;22505;-48
2023/08/15 15:14:59;;;;;;;4.20;2.40;;;;;;;32.38;41.40;100681.11;110074;1249;22521;-48
2023/08/15 15:17:26;;;;;;;3.50;2.50;;;;;;;32.30;41.75;100684.80;110089;1249;22491;-48
2023/08/15 15:19:53;;;;;;;6.00;2.50;;;;;;;32.22;41.94;100687.98;110462;1249;23513;-49
2023/08/15 15:22:20;;;;;;;8.20;2.70;;;;;;;32.12;42.46;100685.44;110501;1249;22726;-54
2023/08/15 15:24:48;;;;;;;2.70;2.30;;;;;;;32.00;43.04;100679.80;110380;1249;22694;-50
2023/08/15 15:27:15;;;;;;;5.90;2.90;;;;;;;31.86;43.45;100680.77;110319;1249;23260;-54
2023/08/15 15:29:42;;;;;;;2.90;2.60;;;;;;;31.67;43.78;100682.46;110348;1249;25353;-54
2023/08/15 15:32:09;;;;;;;3.50;2.70;;;;;;;31.49;44.42;100680.56;110039;1249;24143;-55
2023/08/15 15:34:37;;;;;;;5.40;2.90;;;;;;;31.37;44.69;100677.19;110036;1248;22586;-48
2023/08/15 15:37:04;;;;;;;4.00;2.90;;;;;;;31.32;45.13;100680.88;110563;1249;24201;-49
2023/08/15 15:39:31;;;;;;;3.60;2.50;;;;;;;31.28;45.50;100677.64;110509;1249;26482;-48
2023/08/15 15:41:59;;;;;;;5.80;2.90;;;;;;;31.22;45.73;100677.83;110327;1249;24279;-48
